Time;durP1;ratioP1;P1;durP2;ratioP2;P2;SDS_P1;SDS_P2;PMS_P1;PMS_P2;Temp;Humidity;BMP_temperature;BMP_pressure;BME280_temperature;BME280_humidity;BME280_pressure;Samples;Min_cycle;Max_cycle;Signal;HPM_P1;HPM_P2
2023/05/25 00:00:08;;;;;;;9.88;4.85;;;;;;;;;;5033483;28;20240;-64
2023/05/25 00:02:34;;;;;;;10.85;4.63;;;;;;;;;;5033138;28;20218;-65
2023/05/25 00:04:59;;;;;;;11.65;4.88;;;;;;;;;;5033554;28;20299;-64
2023/05/25 00:07:25;;;;;;;13.52;5.28;;;;;;;;;;5032879;28;20694;-65
2023/05/25 00:09:50;;;;;;;11.05;4.40;;;;;;;;;;5032611;28;20591;-65
2023/05/25 00:12:16;;;;;;;9.70;4.30;;;;;;;;;;5032976;28;20224;-64
2023/05/25 00:14:41;;;;;;;12.20;4.53;;;;;;;;;;5026051;28;20224;-64
2023/05/25 00:17:08;;;;;;;12.82;4.78;;;;;;;;;;5025561;28;20218;-64
2023/05/25 00:19:34;;;;;;;12.18;4.65;;;;;;;;;;5033213;28;20224;-64
2023/05/25 00:22:05;;;;;;;9.13;4.78;;;;;;;;;;5032954;28;20211;-64
2023/05/25 00:24:30;;;;;;;10.40;4.60;;;;;;;;;;5032693;28;20223;-64
2023/05/25 00:26:56;;;;;;;11.60;4.93;;;;;;;;;;5033137;28;20237;-64
2023/05/25 00:29:21;;;;;;;11.32;4.90;;;;;;;;;;5031804;28;20243;-64
2023/05/25 00:31:48;;;;;;;16.38;4.93;;;;;;;;;;5030026;28;20308;-65
2023/05/25 00:34:13;;;;;;;11.82;4.78;;;;;;;;;;5032489;28;20725;-64
2023/05/25 00:36:39;;;;;;;13.60;5.32;;;;;;;;;;5032166;28;20212;-64
2023/05/25 00:39:04;;;;;;;14.93;5.25;;;;;;;;;;5032221;28;20243;-64
2023/05/25 00:41:29;;;;;;;12.48;5.03;;;;;;;;;;5032965;28;20258;-64
2023/05/25 00:43:55;;;;;;;13.57;5.15;;;;;;;;;;5032149;28;20218;-64
2023/05/25 00:46:21;;;;;;;14.48;5.07;;;;;;;;;;5032687;28;20724;-64
2023/05/25 00:48:46;;;;;;;13.63;5.30;;;;;;;;;;5032930;28;20576;-64
2023/05/25 00:51:11;;;;;;;11.75;5.03;;;;;;;;;;5030184;28;20222;-64
2023/05/25 00:53:37;;;;;;;13.15;5.43;;;;;;;;;;5031119;28;20596;-65
2023/05/25 00:56:03;;;;;;;14.27;5.25;;;;;;;;;;5032011;28;20682;-65
2023/05/25 00:58:29;;;;;;;11.73;4.75;;;;;;;;;;5031958;28;20395;-65
2023/05/25 01:00:56;;;;;;;13.60;5.40;;;;;;;;;;5032779;28;20231;-65
2023/05/25 01:03:27;;;;;;;13.80;4.65;;;;;;;;;;5030855;28;20324;-65
2023/05/25 01:05:53;;;;;;;12.70;5.15;;;;;;;;;;5030478;28;20270;-64
2023/05/25 01:08:18;;;;;;;12.88;5.18;;;;;;;;;;5031755;28;20701;-63
2023/05/25 01:10:43;;;;;;;13.05;5.70;;;;;;;;;;5030800;28;20220;-64
2023/05/25 01:13:09;;;;;;;15.13;5.75;;;;;;;;;;5030010;28;20212;-64
2023/05/25 01:15:36;;;;;;;11.15;5.03;;;;;;;;;;5024828;28;20232;-64
2023/05/25 01:18:02;;;;;;;12.30;5.13;;;;;;;;;;5012028;28;20576;-63
2023/05/25 01:20:28;;;;;;;15.23;5.38;;;;;;;;;;5011353;28;20248;-64
2023/05/25 01:22:55;;;;;;;17.42;5.85;;;;;;;;;;5012113;28;20232;-64
2023/05/25 01:25:21;;;;;;;14.02;5.53;;;;;;;;;;5011777;28;20235;-64
2023/05/25 01:27:50;;;;;;;15.32;5.68;;;;;;;;;;5010598;28;20544;-65
2023/05/25 01:30:15;;;;;;;13.40;5.43;;;;;;;;;;5012053;28;20216;-65
2023/05/25 01:32:41;;;;;;;13.30;5.78;;;;;;;;;;5023210;28;20223;-65
2023/05/25 01:35:06;;;;;;;12.23;5.78;;;;;;;;;;5030071;28;20274;-64
2023/05/25 01:37:32;;;;;;;13.48;5.65;;;;;;;;;;5031970;28;20223;-65
2023/05/25 01:39:57;;;;;;;13.82;5.72;;;;;;;;;;5029215;28;20326;-65
2023/05/25 01:42:22;;;;;;;14.48;5.50;;;;;;;;;;5030651;28;20223;-65
2023/05/25 01:44:47;;;;;;;14.25;5.78;;;;;;;;;;5031840;28;20293;-65
2023/05/25 01:47:20;;;;;;;12.15;5.90;;;;;;;;;;5029538;28;20675;-64
2023/05/25 01:49:51;;;;;;;12.77;5.78;;;;;;;;;;5030183;28;20212;-65
2023/05/25 01:52:18;;;;;;;12.90;6.10;;;;;;;;;;5029841;28;20223;-64
2023/05/25 01:54:44;;;;;;;14.63;5.85;;;;;;;;;;5029147;28;20224;-65
2023/05/25 01:57:11;;;;;;;14.75;5.75;;;;;;;;;;5011843;28;20735;-64
2023/05/25 01:59:36;;;;;;;13.13;5.78;;;;;;;;;;5012034;28;20696;-65
2023/05/25 02:02:02;;;;;;;12.88;5.30;;;;;;;;;;5009694;28;20243;-64
2023/05/25 02:04:27;;;;;;;13.65;5.72;;;;;;;;;;5011549;28;20629;-65
2023/05/25 02:06:52;;;;;;;16.00;5.75;;;;;;;;;;5010415;28;20702;-65
2023/05/25 02:09:18;;;;;;;13.35;5.70;;;;;;;;;;5010198;28;20262;-65
2023/05/25 02:11:43;;;;;;;14.02;5.95;;;;;;;;;;5011713;28;20219;-65
2023/05/25 02:14:09;;;;;;;12.68;5.68;;;;;;;;;;5013906;28;20227;-64
2023/05/25 02:16:35;;;;;;;12.60;5.63;;;;;;;;;;5022089;28;20220;-65
2023/05/25 02:19:00;;;;;;;12.38;5.80;;;;;;;;;;5011213;28;20604;-64
2023/05/25 02:21:25;;;;;;;16.95;5.90;;;;;;;;;;5007639;28;20219;-64
2023/05/25 02:23:52;;;;;;;12.60;6.22;;;;;;;;;;5018116;28;20273;-64
2023/05/25 02:26:18;;;;;;;13.93;6.13;;;;;;;;;;5018512;28;20250;-65
2023/05/25 02:28:43;;;;;;;11.93;5.70;;;;;;;;;;5013042;28;20330;-65
2023/05/25 02:31:08;;;;;;;14.43;5.38;;;;;;;;;;5013292;28;20222;-64
2023/05/25 02:33:34;;;;;;;12.55;6.43;;;;;;;;;;4996729;28;20270;-64
2023/05/25 02:35:59;;;;;;;13.13;5.63;;;;;;;;;;5001342;28;21107;-65
2023/05/25 02:38:25;;;;;;;12.88;5.95;;;;;;;;;;5012451;28;20230;-64
2023/05/25 02:40:50;;;;;;;13.88;6.03;;;;;;;;;;5020854;28;20207;-64
2023/05/25 02:43:15;;;;;;;15.85;6.57;;;;;;;;;;5020036;28;20682;-64
2023/05/25 02:45:41;;;;;;;13.88;6.10;;;;;;;;;;5020990;28;20251;-64
2023/05/25 02:48:06;;;;;;;13.93;6.30;;;;;;;;;;5020900;28;20222;-64
2023/05/25 02:50:31;;;;;;;14.65;6.47;;;;;;;;;;5013191;28;20215;-64
2023/05/25 02:52:56;;;;;;;15.32;6.53;;;;;;;;;;5014602;28;20223;-64
2023/05/25 02:55:24;;;;;;;12.95;6.25;;;;;;;;;;5012096;28;20224;-64
2023/05/25 02:57:50;;;;;;;14.10;6.20;;;;;;;;;;5004635;28;20220;-64
2023/05/25 03:00:16;;;;;;;11.90;6.20;;;;;;;;;;5005217;28;20215;-64
2023/05/25 03:02:41;;;;;;;13.70;7.18;;;;;;;;;;5024840;28;20220;-64
2023/05/25 03:05:07;;;;;;;14.88;6.85;;;;;;;;;;5008081;28;20338;-64
2023/05/25 03:07:32;;;;;;;18.85;6.82;;;;;;;;;;5024260;28;20572;-65
2023/05/25 03:09:58;;;;;;;18.67;7.50;;;;;;;;;;5024400;28;20200;-64
2023/05/25 03:12:23;;;;;;;14.25;7.38;;;;;;;;;;5018813;28;20219;-64
2023/05/25 03:14:48;;;;;;;17.88;8.15;;;;;;;;;;5009083;28;20231;-64
2023/05/25 03:17:14;;;;;;;16.40;7.13;;;;;;;;;;4997183;28;20216;-64
2023/05/25 03:19:40;;;;;;;15.43;7.07;;;;;;;;;;5001175;28;21141;-64
2023/05/25 03:22:05;;;;;;;16.92;6.93;;;;;;;;;;5019282;28;20216;-64
2023/05/25 03:24:30;;;;;;;18.67;6.95;;;;;;;;;;5004744;28;20220;-64
2023/05/25 03:26:55;;;;;;;20.60;7.18;;;;;;;;;;5004286;28;20577;-64
2023/05/25 03:29:21;;;;;;;16.90;7.82;;;;;;;;;;5013247;28;20610;-64
2023/05/25 03:31:46;;;;;;;16.98;7.18;;;;;;;;;;5020822;28;20299;-64
2023/05/25 03:34:11;;;;;;;15.40;6.80;;;;;;;;;;5001186;28;20231;-64
2023/05/25 03:36:37;;;;;;;13.23;7.10;;;;;;;;;;4997472;28;20797;-64
2023/05/25 03:39:03;;;;;;;14.00;7.15;;;;;;;;;;4995921;28;20205;-64
2023/05/25 03:41:28;;;;;;;17.88;6.90;;;;;;;;;;4999019;28;20212;-64
2023/05/25 03:43:53;;;;;;;17.67;7.22;;;;;;;;;;5004501;28;20667;-64
2023/05/25 03:46:19;;;;;;;12.90;6.93;;;;;;;;;;5003835;28;20212;-64
2023/05/25 03:48:45;;;;;;;14.05;6.97;;;;;;;;;;5004574;28;20216;-64
2023/05/25 03:51:10;;;;;;;20.95;7.10;;;;;;;;;;5003944;28;20221;-63
2023/05/25 03:53:35;;;;;;;17.25;6.75;;;;;;;;;;5003672;28;20213;-64
2023/05/25 03:56:00;;;;;;;15.55;6.60;;;;;;;;;;5003694;28;20216;-62
2023/05/25 03:58:26;;;;;;;15.35;6.50;;;;;;;;;;4997080;28;20212;-64
2023/05/25 04:00:51;;;;;;;17.48;6.40;;;;;;;;;;4995984;28;20755;-64
2023/05/25 04:03:16;;;;;;;18.40;7.07;;;;;;;;;;5015820;28;20792;-64
2023/05/25 04:05:44;;;;;;;18.23;6.63;;;;;;;;;;5021940;28;20211;-64
2023/05/25 04:08:09;;;;;;;15.05;6.60;;;;;;;;;;5022433;28;20208;-63
2023/05/25 04:10:35;;;;;;;13.75;6.45;;;;;;;;;;5003803;28;20867;-64
2023/05/25 04:13:00;;;;;;;14.65;6.10;;;;;;;;;;5003816;28;20220;-64
2023/05/25 04:15:25;;;;;;;15.13;6.75;;;;;;;;;;5002826;28;20221;-64
2023/05/25 04:17:50;;;;;;;14.20;6.88;;;;;;;;;;5004119;28;20255;-64
2023/05/25 04:20:16;;;;;;;16.77;6.65;;;;;;;;;;4998953;28;20263;-64
2023/05/25 04:22:42;;;;;;;16.70;7.00;;;;;;;;;;4995449;28;20712;-64
2023/05/25 04:25:09;;;;;;;14.63;6.97;;;;;;;;;;4995901;28;20213;-63
2023/05/25 04:27:34;;;;;;;20.02;8.60;;;;;;;;;;5000436;28;20942;-64
2023/05/25 04:30:00;;;;;;;19.20;7.57;;;;;;;;;;5017503;28;20246;-64
2023/05/25 04:32:28;;;;;;;17.58;7.38;;;;;;;;;;5013740;28;20216;-64
2023/05/25 04:34:53;;;;;;;17.23;7.70;;;;;;;;;;5019299;28;20319;-64
2023/05/25 04:37:20;;;;;;;22.35;8.00;;;;;;;;;;5013086;28;20626;-64
2023/05/25 04:39:45;;;;;;;21.27;7.85;;;;;;;;;;5022825;28;20215;-64
2023/05/25 04:42:11;;;;;;;17.90;7.93;;;;;;;;;;5010929;28;20212;-63
2023/05/25 04:44:38;;;;;;;16.40;6.95;;;;;;;;;;5014933;28;20208;-64
2023/05/25 04:47:04;;;;;;;21.30;7.40;;;;;;;;;;5014638;28;20207;-64
2023/05/25 04:49:30;;;;;;;15.57;7.53;;;;;;;;;;5017057;28;21048;-63
2023/05/25 04:51:55;;;;;;;18.05;7.30;;;;;;;;;;5022583;28;20914;-64
2023/05/25 04:54:20;;;;;;;17.30;8.27;;;;;;;;;;5021826;28;20224;-65
2023/05/25 04:56:46;;;;;;;23.63;8.48;;;;;;;;;;5035832;28;20218;-65
2023/05/25 04:59:11;;;;;;;18.65;7.78;;;;;;;;;;5046015;28;20216;-64
2023/05/25 05:01:43;;;;;;;17.83;7.47;;;;;;;;;;5041286;28;20212;-63
2023/05/25 05:04:08;;;;;;;17.38;7.88;;;;;;;;;;5010586;28;21004;-62
2023/05/25 05:06:34;;;;;;;17.65;7.63;;;;;;;;;;5012616;28;20216;-62
2023/05/25 05:09:00;;;;;;;17.15;7.07;;;;;;;;;;5012723;28;20706;-61
2023/05/25 05:11:26;;;;;;;16.97;7.73;;;;;;;;;;5030851;28;20960;-61
2023/05/25 05:13:52;;;;;;;16.17;7.22;;;;;;;;;;5040784;28;20219;-61
2023/05/25 05:16:17;;;;;;;15.50;7.68;;;;;;;;;;5038818;28;20261;-61
2023/05/25 05:18:42;;;;;;;20.33;7.97;;;;;;;;;;5038662;28;20200;-61
2023/05/25 05:21:08;;;;;;;17.73;7.93;;;;;;;;;;5041996;28;20223;-60
2023/05/25 05:23:33;;;;;;;18.05;8.35;;;;;;;;;;5041352;28;20287;-61
2023/05/25 05:25:59;;;;;;;18.55;8.10;;;;;;;;;;5040148;28;20265;-61
2023/05/25 05:28:26;;;;;;;18.75;8.27;;;;;;;;;;5038261;28;20218;-61
2023/05/25 05:30:51;;;;;;;16.70;8.63;;;;;;;;;;5041955;28;20247;-61
2023/05/25 05:33:17;;;;;;;17.10;8.23;;;;;;;;;;5037223;28;20211;-61
2023/05/25 05:35:42;;;;;;;18.50;7.63;;;;;;;;;;5041901;28;20219;-61
2023/05/25 05:38:08;;;;;;;21.25;8.60;;;;;;;;;;5041157;28;20261;-61
2023/05/25 05:40:34;;;;;;;19.10;8.15;;;;;;;;;;5039071;28;20228;-61
2023/05/25 05:43:00;;;;;;;19.88;7.80;;;;;;;;;;5020562;28;20616;-61
2023/05/25 05:45:25;;;;;;;13.65;7.03;;;;;;;;;;5029773;28;20710;-61
2023/05/25 05:47:50;;;;;;;17.00;7.10;;;;;;;;;;5024797;28;20235;-62
2023/05/25 05:50:15;;;;;;;17.73;7.25;;;;;;;;;;5031355;28;20211;-61
2023/05/25 05:52:41;;;;;;;14.30;6.90;;;;;;;;;;5030959;28;20694;-61
2023/05/25 05:55:06;;;;;;;16.60;7.38;;;;;;;;;;5030417;28;20216;-61
2023/05/25 05:57:32;;;;;;;20.98;7.22;;;;;;;;;;5027301;28;20215;-61
2023/05/25 05:59:57;;;;;;;19.85;7.00;;;;;;;;;;5030530;28;20246;-61
2023/05/25 06:02:22;;;;;;;18.65;6.88;;;;;;;;;;5031138;28;20207;-61
2023/05/25 06:04:47;;;;;;;16.90;7.20;;;;;;;;;;5031538;28;20277;-61
2023/05/25 06:07:13;;;;;;;18.27;7.18;;;;;;;;;;5030218;28;20207;-61
2023/05/25 06:09:38;;;;;;;17.67;7.20;;;;;;;;;;5031479;28;20238;-61
2023/05/25 06:12:03;;;;;;;23.75;7.97;;;;;;;;;;5029371;28;20216;-61
2023/05/25 06:14:29;;;;;;;22.67;7.68;;;;;;;;;;5030272;28;20228;-62
2023/05/25 06:16:54;;;;;;;17.98;7.50;;;;;;;;;;5031515;28;20265;-61
2023/05/25 06:19:19;;;;;;;15.65;7.50;;;;;;;;;;5029741;28;20238;-61
2023/05/25 06:21:45;;;;;;;22.58;8.35;;;;;;;;;;5030763;28;20212;-61
2023/05/25 06:24:10;;;;;;;18.75;8.07;;;;;;;;;;5030838;28;20211;-61
2023/05/25 06:26:35;;;;;;;24.20;8.60;;;;;;;;;;5030960;28;20284;-61
2023/05/25 06:29:00;;;;;;;19.55;7.93;;;;;;;;;;5029566;28;20212;-60
2023/05/25 06:31:26;;;;;;;26.45;8.38;;;;;;;;;;5031043;28;20254;-61
2023/05/25 06:33:51;;;;;;;19.08;7.82;;;;;;;;;;5031254;28;20242;-62
2023/05/25 06:36:16;;;;;;;21.70;7.82;;;;;;;;;;5030198;28;20583;-61
2023/05/25 06:38:41;;;;;;;22.73;9.32;;;;;;;;;;5031292;28;20299;-61
2023/05/25 06:41:08;;;;;;;19.58;8.40;;;;;;;;;;5030674;28;20219;-61
2023/05/25 06:43:33;;;;;;;21.20;8.07;;;;;;;;;;5029983;28;20208;-62
2023/05/25 06:45:59;;;;;;;18.80;9.05;;;;;;;;;;5030905;28;20219;-62
2023/05/25 06:48:24;;;;;;;19.52;8.60;;;;;;;;;;5030594;28;20315;-61
2023/05/25 06:50:49;;;;;;;22.30;7.63;;;;;;;;;;5030533;28;20219;-62
2023/05/25 06:53:15;;;;;;;17.63;8.50;;;;;;;;;;5030355;28;20229;-61
2023/05/25 06:55:41;;;;;;;18.52;8.75;;;;;;;;;;5023487;28;20228;-62
2023/05/25 06:58:06;;;;;;;19.88;8.48;;;;;;;;;;5009397;28;20216;-61
2023/05/25 07:00:31;;;;;;;19.20;8.50;;;;;;;;;;5021542;28;20295;-62
2023/05/25 07:02:57;;;;;;;18.65;7.20;;;;;;;;;;5030698;28;20218;-61
2023/05/25 07:05:22;;;;;;;18.67;8.60;;;;;;;;;;5030096;28;20261;-62
2023/05/25 07:07:47;;;;;;;20.35;8.45;;;;;;;;;;5029073;28;20342;-62
2023/05/25 07:10:12;;;;;;;18.17;8.82;;;;;;;;;;5029684;28;20693;-61
2023/05/25 07:12:38;;;;;;;24.35;8.43;;;;;;;;;;5030495;28;20216;-62
2023/05/25 07:15:03;;;;;;;21.48;8.95;;;;;;;;;;5030153;28;20251;-61
2023/05/25 07:17:30;;;;;;;19.77;8.77;;;;;;;;;;5025689;28;20224;-62
2023/05/25 07:19:55;;;;;;;22.30;10.38;;;;;;;;;;5030764;28;20227;-62
2023/05/25 07:22:22;;;;;;;21.45;9.25;;;;;;;;;;5030523;28;20299;-61
2023/05/25 07:24:47;;;;;;;23.80;9.27;;;;;;;;;;5030008;28;20215;-62
2023/05/25 07:27:13;;;;;;;18.13;8.10;;;;;;;;;;5029899;28;20223;-61
2023/05/25 07:29:38;;;;;;;22.10;8.55;;;;;;;;;;5030748;28;20262;-62
2023/05/25 07:32:03;;;;;;;14.95;6.72;;;;;;;;;;5029191;28;20629;-61
2023/05/25 07:34:28;;;;;;;22.23;7.97;;;;;;;;;;5030430;28;20810;-62
2023/05/25 07:36:54;;;;;;;18.55;7.18;;;;;;;;;;5030832;28;20216;-62
2023/05/25 07:39:19;;;;;;;17.00;7.20;;;;;;;;;;5030016;28;20283;-61
2023/05/25 07:41:45;;;;;;;17.55;6.95;;;;;;;;;;5033793;28;20236;-62
2023/05/25 07:44:10;;;;;;;18.92;7.85;;;;;;;;;;5033477;28;20341;-62
2023/05/25 07:46:35;;;;;;;23.55;7.68;;;;;;;;;;5033090;28;20215;-62
2023/05/25 07:49:02;;;;;;;18.77;8.18;;;;;;;;;;5033439;28;20218;-60
2023/05/25 07:51:28;;;;;;;21.25;8.45;;;;;;;;;;5034187;28;20694;-62
2023/05/25 07:53:55;;;;;;;16.67;7.10;;;;;;;;;;5033442;28;20212;-62
2023/05/25 07:56:20;;;;;;;15.02;6.68;;;;;;;;;;5032972;28;20249;-62
2023/05/25 07:58:45;;;;;;;15.57;6.70;;;;;;;;;;5033678;28;20723;-62
2023/05/25 08:01:11;;;;;;;17.65;7.40;;;;;;;;;;5032509;28;20247;-62
2023/05/25 08:03:36;;;;;;;17.15;6.40;;;;;;;;;;5033268;28;20208;-62
2023/05/25 08:06:01;;;;;;;17.63;8.20;;;;;;;;;;5031548;28;20304;-61
2023/05/25 08:08:26;;;;;;;18.65;6.90;;;;;;;;;;5033107;28;20682;-62
2023/05/25 08:10:52;;;;;;;16.85;6.85;;;;;;;;;;5033664;28;20575;-62
2023/05/25 08:13:17;;;;;;;17.20;7.18;;;;;;;;;;5032787;28;20274;-61
2023/05/25 08:15:42;;;;;;;17.08;6.80;;;;;;;;;;5031169;28;20705;-62
2023/05/25 08:18:07;;;;;;;15.45;6.65;;;;;;;;;;5030283;28;20739;-61
2023/05/25 08:20:33;;;;;;;15.98;5.75;;;;;;;;;;5032691;28;20228;-62
2023/05/25 08:22:58;;;;;;;17.45;6.63;;;;;;;;;;5033429;28;20231;-62
2023/05/25 08:25:24;;;;;;;20.48;7.30;;;;;;;;;;5033151;28;20216;-62
2023/05/25 08:27:49;;;;;;;16.45;6.97;;;;;;;;;;5032448;28;20208;-62
2023/05/25 08:30:14;;;;;;;16.58;6.25;;;;;;;;;;5032922;28;20223;-62
2023/05/25 08:32:39;;;;;;;17.55;6.57;;;;;;;;;;5032915;28;20289;-62
2023/05/25 08:35:05;;;;;;;32.15;17.77;;;;;;;;;;5031869;28;20219;-62
2023/05/25 08:37:30;;;;;;;21.58;7.97;;;;;;;;;;5033365;28;20222;-63
2023/05/25 08:39:56;;;;;;;18.88;8.02;;;;;;;;;;5031949;28;20212;-63
2023/05/25 08:42:22;;;;;;;21.27;10.10;;;;;;;;;;5031847;28;20697;-62
2023/05/25 08:44:47;;;;;;;22.88;11.43;;;;;;;;;;5031497;28;20216;-62
2023/05/25 08:47:14;;;;;;;22.67;13.30;;;;;;;;;;5024894;28;20278;-63
2023/05/25 08:49:40;;;;;;;15.05;8.73;;;;;;;;;;5043467;28;20215;-63
2023/05/25 08:52:06;;;;;;;17.38;6.82;;;;;;;;;;5049203;28;20744;-62
2023/05/25 08:54:33;;;;;;;14.88;6.18;;;;;;;;;;5036339;28;20230;-63
2023/05/25 08:57:05;;;;;;;12.48;6.30;;;;;;;;;;5031831;28;20215;-63
2023/05/25 08:59:35;;;;;;;18.00;7.60;;;;;;;;;;5014316;28;20216;-63
2023/05/25 09:02:10;;;;;;;14.25;6.88;;;;;;;;;;5020944;28;20216;-63
2023/05/25 09:04:35;;;;;;;17.83;7.13;;;;;;;;;;5031611;28;20215;-62
2023/05/25 09:07:01;;;;;;;15.35;6.40;;;;;;;;;;5020742;28;20213;-61
2023/05/25 09:09:26;;;;;;;19.05;7.03;;;;;;;;;;5031827;28;20322;-63
2023/05/25 09:11:51;;;;;;;16.20;6.38;;;;;;;;;;5030399;28;20211;-63
2023/05/25 09:14:16;;;;;;;16.60;6.25;;;;;;;;;;5031627;28;20634;-63
2023/05/25 09:16:42;;;;;;;13.82;5.82;;;;;;;;;;5020234;28;20220;-63
2023/05/25 09:19:07;;;;;;;13.13;7.50;;;;;;;;;;5024254;28;20867;-62
2023/05/25 09:21:32;;;;;;;17.88;8.02;;;;;;;;;;5049335;28;20214;-63
2023/05/25 09:23:58;;;;;;;19.25;10.45;;;;;;;;;;5051529;28;20215;-63
2023/05/25 09:26:23;;;;;;;13.75;6.13;;;;;;;;;;5051279;28;20616;-63
2023/05/25 09:28:49;;;;;;;12.00;6.63;;;;;;;;;;5051803;28;20748;-62
2023/05/25 09:31:14;;;;;;;16.27;6.60;;;;;;;;;;5050302;28;20211;-62
2023/05/25 09:33:39;;;;;;;19.58;6.97;;;;;;;;;;5051810;28;20591;-63
2023/05/25 09:36:05;;;;;;;17.52;6.30;;;;;;;;;;5051573;28;20250;-63
2023/05/25 09:38:30;;;;;;;18.70;6.50;;;;;;;;;;5051365;28;20298;-63
2023/05/25 09:40:56;;;;;;;13.48;6.03;;;;;;;;;;5050672;28;20222;-63
2023/05/25 09:43:21;;;;;;;14.15;6.80;;;;;;;;;;5051376;28;20688;-63
2023/05/25 09:45:46;;;;;;;19.10;9.68;;;;;;;;;;5050434;28;20219;-63
2023/05/25 09:48:12;;;;;;;15.35;5.25;;;;;;;;;;5051081;28;20214;-62
2023/05/25 09:50:37;;;;;;;18.10;6.50;;;;;;;;;;5050250;28;20211;-63
2023/05/25 09:53:02;;;;;;;14.80;5.45;;;;;;;;;;5049393;28;20275;-63
2023/05/25 09:55:28;;;;;;;13.65;5.10;;;;;;;;;;5046126;28;20267;-63
2023/05/25 09:57:53;;;;;;;17.50;6.80;;;;;;;;;;5031463;28;20655;-63
2023/05/25 10:00:19;;;;;;;16.05;6.45;;;;;;;;;;5029977;28;20226;-62
2023/05/25 10:02:44;;;;;;;14.32;5.95;;;;;;;;;;5029531;28;20215;-63
2023/05/25 10:05:09;;;;;;;14.80;5.95;;;;;;;;;;5031036;28;20207;-62
2023/05/25 10:07:37;;;;;;;12.73;5.40;;;;;;;;;;5019878;28;20208;-63
2023/05/25 10:10:03;;;;;;;15.13;5.07;;;;;;;;;;5030008;28;20228;-62
2023/05/25 10:12:28;;;;;;;11.35;5.68;;;;;;;;;;5031356;28;20218;-63
2023/05/25 10:14:53;;;;;;;11.73;4.93;;;;;;;;;;5028849;28;20622;-63
2023/05/25 10:17:21;;;;;;;11.88;4.57;;;;;;;;;;5014779;28;20236;-64
2023/05/25 10:19:50;;;;;;;14.68;4.95;;;;;;;;;;5021065;28;20523;-63
2023/05/25 10:22:24;;;;;;;11.98;4.07;;;;;;;;;;5044258;28;20310;-64
2023/05/25 10:24:55;;;;;;;9.52;3.85;;;;;;;;;;5030017;28;20219;-62
2023/05/25 10:27:21;;;;;;;11.65;4.57;;;;;;;;;;5020358;28;20219;-63
2023/05/25 10:29:47;;;;;;;14.48;4.22;;;;;;;;;;5011017;28;20223;-64
2023/05/25 10:32:12;;;;;;;11.27;3.88;;;;;;;;;;5011054;28;20216;-64
2023/05/25 10:34:37;;;;;;;14.07;4.38;;;;;;;;;;5009546;28;20299;-64
2023/05/25 10:37:03;;;;;;;12.55;4.20;;;;;;;;;;5011304;28;20208;-63
2023/05/25 10:39:28;;;;;;;10.15;3.78;;;;;;;;;;5010346;28;20270;-64
2023/05/25 10:41:53;;;;;;;11.38;3.55;;;;;;;;;;5009179;28;20303;-64
2023/05/25 10:44:19;;;;;;;12.70;4.55;;;;;;;;;;5010580;28;20220;-63
2023/05/25 10:46:44;;;;;;;10.05;3.88;;;;;;;;;;5009575;28;20217;-63
2023/05/25 10:49:09;;;;;;;8.25;3.33;;;;;;;;;;5010166;28;20715;-63
2023/05/25 10:51:42;;;;;;;10.98;3.45;;;;;;;;;;5011224;28;20227;-63
2023/05/25 10:54:07;;;;;;;8.68;3.08;;;;;;;;;;5010693;28;20228;-63
2023/05/25 10:56:33;;;;;;;10.68;3.50;;;;;;;;;;5023141;28;20270;-63
2023/05/25 10:58:58;;;;;;;9.20;3.35;;;;;;;;;;5030779;28;20236;-64
2023/05/25 11:01:23;;;;;;;7.57;3.03;;;;;;;;;;5015933;28;20628;-63
2023/05/25 11:03:49;;;;;;;8.60;3.50;;;;;;;;;;5035826;28;20211;-63
2023/05/25 11:06:17;;;;;;;9.90;3.70;;;;;;;;;;5035690;28;20235;-63
2023/05/25 11:08:54;;;;;;;6.05;2.75;;;;;;;;;;5030854;28;20219;-63
2023/05/25 11:11:21;;;;;;;9.32;3.20;;;;;;;;;;5029486;28;20227;-63
2023/05/25 11:13:46;;;;;;;9.95;3.40;;;;;;;;;;5031626;28;20295;-63
2023/05/25 11:16:16;;;;;;;6.68;3.00;;;;;;;;;;5019098;28;20299;-63
2023/05/25 11:18:42;;;;;;;8.95;3.78;;;;;;;;;;5034390;28;20676;-63
2023/05/25 11:21:10;;;;;;;11.88;3.83;;;;;;;;;;5034147;28;20250;-63
2023/05/25 11:23:37;;;;;;;9.27;3.40;;;;;;;;;;5033509;28;20212;-63
2023/05/25 11:26:03;;;;;;;9.05;3.60;;;;;;;;;;5033927;28;20220;-63
2023/05/25 11:28:31;;;;;;;12.32;3.78;;;;;;;;;;5034256;28;20218;-63
2023/05/25 11:30:56;;;;;;;7.93;3.30;;;;;;;;;;5033178;28;20220;-63
2023/05/25 11:33:22;;;;;;;11.68;3.50;;;;;;;;;;5032771;28;20301;-63
2023/05/25 11:35:48;;;;;;;9.70;3.40;;;;;;;;;;5034217;28;20691;-63
2023/05/25 11:38:14;;;;;;;11.93;3.40;;;;;;;;;;5032735;28;20219;-63
2023/05/25 11:40:40;;;;;;;11.68;3.42;;;;;;;;;;5033985;28;20216;-64
2023/05/25 11:43:05;;;;;;;10.82;3.80;;;;;;;;;;5019935;28;20213;-62
2023/05/25 11:45:32;;;;;;;8.90;3.85;;;;;;;;;;5013030;28;20251;-63
2023/05/25 11:47:57;;;;;;;11.48;4.28;;;;;;;;;;5014514;28;20212;-63
2023/05/25 11:50:22;;;;;;;9.40;3.20;;;;;;;;;;5013877;28;20223;-64
2023/05/25 11:52:47;;;;;;;8.40;3.10;;;;;;;;;;5013420;28;20209;-63
2023/05/25 11:55:13;;;;;;;9.50;3.50;;;;;;;;;;5016526;28;20219;-63
2023/05/25 11:57:39;;;;;;;8.90;3.60;;;;;;;;;;5033703;28;20754;-63
2023/05/25 12:00:05;;;;;;;8.48;3.40;;;;;;;;;;5031925;28;20212;-63
2023/05/25 12:02:36;;;;;;;10.40;3.63;;;;;;;;;;5033858;28;20215;-64
2023/05/25 12:05:01;;;;;;;9.77;3.40;;;;;;;;;;5033477;28;20697;-62
2023/05/25 12:07:27;;;;;;;12.93;3.45;;;;;;;;;;5030070;28;20216;-63
2023/05/25 12:10:08;;;;;;;9.13;3.70;;;;;;;;;;5013457;28;20231;-64
2023/05/25 12:12:40;;;;;;;10.98;3.97;;;;;;;;;;5012506;28;20287;-63
2023/05/25 12:15:06;;;;;;;7.72;3.47;;;;;;;;;;5023272;28;20362;-63
2023/05/25 12:17:32;;;;;;;11.45;3.72;;;;;;;;;;5033464;28;20690;-64
2023/05/25 12:19:57;;;;;;;8.18;3.58;;;;;;;;;;5029837;28;20235;-64
2023/05/25 12:22:22;;;;;;;11.15;4.45;;;;;;;;;;5032664;28;20307;-64
2023/05/25 12:24:48;;;;;;;9.25;3.40;;;;;;;;;;5032811;28;20227;-64
2023/05/25 12:27:19;;;;;;;9.52;3.38;;;;;;;;;;5031543;28;20683;-63
2023/05/25 12:29:46;;;;;;;10.95;3.45;;;;;;;;;;5032979;28;20254;-64
2023/05/25 12:32:11;;;;;;;11.65;3.47;;;;;;;;;;5032841;28;20216;-63
2023/05/25 12:34:36;;;;;;;10.10;3.47;;;;;;;;;;5032487;28;20231;-64
2023/05/25 12:37:01;;;;;;;12.07;3.70;;;;;;;;;;5032650;28;20247;-62
2023/05/25 12:39:28;;;;;;;13.55;3.50;;;;;;;;;;5032701;28;20667;-64
2023/05/25 12:41:53;;;;;;;10.25;3.47;;;;;;;;;;5032236;28;20691;-63
2023/05/25 12:44:20;;;;;;;11.82;3.72;;;;;;;;;;5014288;28;20299;-63
2023/05/25 12:46:45;;;;;;;11.88;4.00;;;;;;;;;;5013304;28;20235;-64
2023/05/25 12:49:22;;;;;;;10.35;3.55;;;;;;;;;;5012267;28;20578;-63
2023/05/25 12:51:47;;;;;;;12.60;3.60;;;;;;;;;;5012907;28;20277;-63
2023/05/25 12:54:13;;;;;;;10.95;3.75;;;;;;;;;;5012344;28;20224;-64
2023/05/25 12:56:54;;;;;;;12.10;3.90;;;;;;;;;;5027035;28;20687;-64
2023/05/25 12:59:19;;;;;;;14.32;3.92;;;;;;;;;;5032214;28;20211;-64
2023/05/25 13:01:44;;;;;;;12.70;4.05;;;;;;;;;;5032167;28;20227;-64
2023/05/25 13:04:10;;;;;;;11.43;3.63;;;;;;;;;;5032237;28;20219;-62
2023/05/25 13:06:35;;;;;;;10.73;3.53;;;;;;;;;;5032500;28;20719;-62
2023/05/25 13:09:01;;;;;;;14.02;3.95;;;;;;;;;;5015754;28;20213;-60
2023/05/25 13:11:26;;;;;;;13.85;3.45;;;;;;;;;;5012395;28;20216;-61
2023/05/25 13:13:52;;;;;;;11.40;3.60;;;;;;;;;;5012674;28;20208;-62
2023/05/25 13:16:17;;;;;;;12.57;3.90;;;;;;;;;;5025069;28;20216;-61
2023/05/25 13:18:42;;;;;;;10.25;4.00;;;;;;;;;;5012725;28;20208;-61
2023/05/25 13:21:08;;;;;;;13.20;3.80;;;;;;;;;;5011986;28;20270;-62
2023/05/25 13:23:34;;;;;;;12.80;3.92;;;;;;;;;;5011580;28;20240;-61
2023/05/25 13:25:59;;;;;;;12.70;3.72;;;;;;;;;;5012212;28;20632;-62
2023/05/25 13:28:25;;;;;;;14.77;3.70;;;;;;;;;;5011768;28;20227;-62
2023/05/25 13:30:50;;;;;;;15.07;4.63;;;;;;;;;;5011930;28;20219;-62
2023/05/25 13:33:15;;;;;;;13.18;4.00;;;;;;;;;;5012073;28;20225;-62
2023/05/25 13:35:45;;;;;;;14.32;4.35;;;;;;;;;;5012390;28;20569;-62
2023/05/25 13:38:10;;;;;;;15.40;4.20;;;;;;;;;;5018745;28;20222;-61
2023/05/25 13:40:35;;;;;;;15.00;4.07;;;;;;;;;;5031846;28;20208;-62
2023/05/25 13:43:01;;;;;;;21.80;4.65;;;;;;;;;;5022960;28;20209;-61
2023/05/25 13:45:26;;;;;;;16.60;4.40;;;;;;;;;;5011262;28;20286;-62
2023/05/25 13:47:51;;;;;;;14.40;3.92;;;;;;;;;;5012341;28;20220;-62
2023/05/25 13:50:16;;;;;;;17.45;4.30;;;;;;;;;;5011664;28;20225;-62
2023/05/25 13:52:42;;;;;;;15.63;4.43;;;;;;;;;;5021372;28;20650;-61
2023/05/25 13:55:07;;;;;;;16.88;4.28;;;;;;;;;;5027969;28;20228;-61
2023/05/25 13:57:32;;;;;;;16.02;3.92;;;;;;;;;;5007943;28;20409;-61
2023/05/25 13:59:57;;;;;;;17.10;3.97;;;;;;;;;;5005857;28;20224;-62
2023/05/25 14:02:23;;;;;;;11.93;4.00;;;;;;;;;;5004773;28;21146;-62
2023/05/25 14:04:48;;;;;;;18.98;4.80;;;;;;;;;;5020000;28;20299;-63
2023/05/25 14:07:13;;;;;;;17.60;4.53;;;;;;;;;;5022814;28;20812;-61
2023/05/25 14:09:39;;;;;;;17.55;4.72;;;;;;;;;;5006231;28;20240;-62
2023/05/25 14:12:05;;;;;;;18.40;4.32;;;;;;;;;;5004864;28;20687;-62
2023/05/25 14:14:30;;;;;;;17.13;4.57;;;;;;;;;;5020658;28;20311;-62
2023/05/25 14:16:56;;;;;;;17.25;4.53;;;;;;;;;;5014729;28;20307;-62
2023/05/25 14:19:22;;;;;;;20.02;4.70;;;;;;;;;;5005156;28;20224;-62
2023/05/25 14:21:47;;;;;;;13.88;3.92;;;;;;;;;;4999582;28;20216;-62